sensor_id;sensor_type;location;lat;lon;timestamp;P1;durP1;ratioP1;P2;durP2;ratioP2
20417;SDS011;10368;51.436;6.774;2022-12-08T00:01:24;20.03;;;17.10;;
20417;SDS011;10368;51.436;6.774;2022-12-08T00:03:57;21.77;;;17.80;;
20417;SDS011;10368;51.436;6.774;2022-12-08T00:06:41;19.83;;;15.70;;
20417;SDS011;10368;51.436;6.774;2022-12-08T00:12:05;18.57;;;14.97;;
20417;SDS011;10368;51.436;6.774;2022-12-08T00:14:34;23.13;;;16.40;;
20417;SDS011;10368;51.436;6.774;2022-12-08T00:17:05;20.50;;;15.23;;
20417;SDS011;10368;51.436;6.774;2022-12-08T00:19:34;18.40;;;16.00;;
20417;SDS011;10368;51.436;6.774;2022-12-08T00:22:02;34.17;;;21.07;;
20417;SDS011;10368;51.436;6.774;2022-12-08T00:24:29;17.33;;;15.03;;
20417;SDS011;10368;51.436;6.774;2022-12-08T00:26:58;18.60;;;15.77;;
20417;SDS011;10368;51.436;6.774;2022-12-08T00:29:25;19.17;;;15.13;;
20417;SDS011;10368;51.436;6.774;2022-12-08T00:31:52;18.10;;;16.30;;
20417;SDS011;10368;51.436;6.774;2022-12-08T00:34:20;18.47;;;15.53;;
20417;SDS011;10368;51.436;6.774;2022-12-08T00:36:47;18.00;;;16.10;;
20417;SDS011;10368;51.436;6.774;2022-12-08T00:39:15;18.37;;;14.73;;
20417;SDS011;10368;51.436;6.774;2022-12-08T00:41:43;20.90;;;14.90;;
20417;SDS011;10368;51.436;6.774;2022-12-08T00:44:28;15.93;;;14.23;;
20417;SDS011;10368;51.436;6.774;2022-12-08T00:46:55;19.80;;;15.13;;
20417;SDS011;10368;51.436;6.774;2022-12-08T00:49:22;17.03;;;15.30;;
20417;SDS011;10368;51.436;6.774;2022-12-08T00:51:49;17.20;;;14.83;;
20417;SDS011;10368;51.436;6.774;2022-12-08T00:54:17;23.00;;;16.73;;
20417;SDS011;10368;51.436;6.774;2022-12-08T00:56:45;23.07;;;16.20;;
20417;SDS011;10368;51.436;6.774;2022-12-08T00:59:12;20.63;;;16.40;;
20417;SDS011;10368;51.436;6.774;2022-12-08T01:01:39;18.63;;;16.50;;
20417;SDS011;10368;51.436;6.774;2022-12-08T01:04:09;22.43;;;16.47;;
20417;SDS011;10368;51.436;6.774;2022-12-08T01:06:44;19.93;;;16.50;;
20417;SDS011;10368;51.436;6.774;2022-12-08T01:09:13;22.07;;;16.07;;
20417;SDS011;10368;51.436;6.774;2022-12-08T01:11:41;20.70;;;16.23;;
20417;SDS011;10368;51.436;6.774;2022-12-08T01:14:10;21.57;;;17.37;;
20417;SDS011;10368;51.436;6.774;2022-12-08T01:16:37;20.97;;;17.57;;
20417;SDS011;10368;51.436;6.774;2022-12-08T01:19:08;23.27;;;17.47;;
20417;SDS011;10368;51.436;6.774;2022-12-08T01:21:39;25.13;;;18.10;;
20417;SDS011;10368;51.436;6.774;2022-12-08T01:24:11;23.00;;;17.97;;
20417;SDS011;10368;51.436;6.774;2022-12-08T01:26:42;23.83;;;18.77;;
20417;SDS011;10368;51.436;6.774;2022-12-08T01:29:10;21.63;;;18.57;;
20417;SDS011;10368;51.436;6.774;2022-12-08T01:31:38;27.13;;;18.53;;
20417;SDS011;10368;51.436;6.774;2022-12-08T01:34:06;28.40;;;20.20;;
20417;SDS011;10368;51.436;6.774;2022-12-08T01:36:36;27.50;;;19.87;;
20417;SDS011;10368;51.436;6.774;2022-12-08T01:39:05;29.23;;;19.60;;
20417;SDS011;10368;51.436;6.774;2022-12-08T01:41:34;24.23;;;19.00;;
20417;SDS011;10368;51.436;6.774;2022-12-08T01:46:37;27.53;;;20.70;;
20417;SDS011;10368;51.436;6.774;2022-12-08T01:49:08;33.87;;;22.20;;
20417;SDS011;10368;51.436;6.774;2022-12-08T01:52:08;34.83;;;22.70;;
20417;SDS011;10368;51.436;6.774;2022-12-08T01:54:43;34.60;;;20.70;;
20417;SDS011;10368;51.436;6.774;2022-12-08T01:57:20;32.10;;;21.53;;
20417;SDS011;10368;51.436;6.774;2022-12-08T02:00:12;36.00;;;22.67;;
20417;SDS011;10368;51.436;6.774;2022-12-08T02:03:01;34.57;;;21.33;;
20417;SDS011;10368;51.436;6.774;2022-12-08T02:05:31;34.87;;;22.17;;
20417;SDS011;10368;51.436;6.774;2022-12-08T02:08:00;37.30;;;22.90;;
20417;SDS011;10368;51.436;6.774;2022-12-08T02:10:33;40.30;;;24.30;;
20417;SDS011;10368;51.436;6.774;2022-12-08T02:13:02;35.30;;;22.90;;
20417;SDS011;10368;51.436;6.774;2022-12-08T02:29:36;36.23;;;23.23;;
20417;SDS011;10368;51.436;6.774;2022-12-08T02:35:20;37.73;;;23.27;;
20417;SDS011;10368;51.436;6.774;2022-12-08T02:45:57;37.57;;;23.83;;
20417;SDS011;10368;51.436;6.774;2022-12-08T02:48:27;40.80;;;24.03;;
20417;SDS011;10368;51.436;6.774;2022-12-08T02:50:55;40.87;;;24.03;;
20417;SDS011;10368;51.436;6.774;2022-12-08T02:53:22;40.40;;;25.07;;
20417;SDS011;10368;51.436;6.774;2022-12-08T02:59:02;44.50;;;24.67;;
20417;SDS011;10368;51.436;6.774;2022-12-08T03:05:03;34.13;;;21.00;;
20417;SDS011;10368;51.436;6.774;2022-12-08T03:07:38;38.20;;;22.13;;
20417;SDS011;10368;51.436;6.774;2022-12-08T03:16:12;33.33;;;21.83;;
20417;SDS011;10368;51.436;6.774;2022-12-08T03:18:44;29.73;;;19.70;;
20417;SDS011;10368;51.436;6.774;2022-12-08T03:21:17;30.47;;;20.10;;
20417;SDS011;10368;51.436;6.774;2022-12-08T03:23:46;32.33;;;20.30;;
20417;SDS011;10368;51.436;6.774;2022-12-08T03:26:21;39.60;;;22.77;;
20417;SDS011;10368;51.436;6.774;2022-12-08T03:28:55;37.93;;;22.40;;
20417;SDS011;10368;51.436;6.774;2022-12-08T03:31:24;35.03;;;21.50;;
20417;SDS011;10368;51.436;6.774;2022-12-08T03:33:54;33.57;;;20.10;;
20417;SDS011;10368;51.436;6.774;2022-12-08T03:36:23;28.27;;;19.80;;
20417;SDS011;10368;51.436;6.774;2022-12-08T03:38:51;33.63;;;20.40;;
20417;SDS011;10368;51.436;6.774;2022-12-08T03:41:20;36.07;;;20.30;;
20417;SDS011;10368;51.436;6.774;2022-12-08T03:43:51;34.47;;;20.33;;
20417;SDS011;10368;51.436;6.774;2022-12-08T03:46:23;33.13;;;20.27;;
20417;SDS011;10368;51.436;6.774;2022-12-08T03:48:50;30.80;;;18.73;;
20417;SDS011;10368;51.436;6.774;2022-12-08T03:51:17;30.20;;;19.60;;
20417;SDS011;10368;51.436;6.774;2022-12-08T03:53:44;29.90;;;20.10;;
20417;SDS011;10368;51.436;6.774;2022-12-08T03:58:48;28.47;;;19.37;;
20417;SDS011;10368;51.436;6.774;2022-12-08T04:01:19;27.23;;;19.13;;
20417;SDS011;10368;51.436;6.774;2022-12-08T04:03:46;32.20;;;20.13;;
20417;SDS011;10368;51.436;6.774;2022-12-08T04:06:14;36.77;;;19.70;;
20417;SDS011;10368;51.436;6.774;2022-12-08T04:08:41;30.77;;;18.73;;
20417;SDS011;10368;51.436;6.774;2022-12-08T04:11:08;28.40;;;19.60;;
20417;SDS011;10368;51.436;6.774;2022-12-08T04:13:36;30.57;;;19.10;;
20417;SDS011;10368;51.436;6.774;2022-12-08T04:16:04;28.97;;;18.43;;
20417;SDS011;10368;51.436;6.774;2022-12-08T04:18:32;29.57;;;19.43;;
20417;SDS011;10368;51.436;6.774;2022-12-08T04:21:00;30.63;;;18.60;;
20417;SDS011;10368;51.436;6.774;2022-12-08T04:23:27;30.30;;;18.80;;
20417;SDS011;10368;51.436;6.774;2022-12-08T04:25:54;29.83;;;19.33;;
20417;SDS011;10368;51.436;6.774;2022-12-08T04:28:20;33.27;;;18.63;;
20417;SDS011;10368;51.436;6.774;2022-12-08T04:30:48;25.60;;;17.27;;
20417;SDS011;10368;51.436;6.774;2022-12-08T04:33:15;27.80;;;17.80;;
20417;SDS011;10368;51.436;6.774;2022-12-08T04:35:42;30.50;;;18.40;;
20417;SDS011;10368;51.436;6.774;2022-12-08T04:38:09;25.73;;;16.63;;
20417;SDS011;10368;51.436;6.774;2022-12-08T04:40:36;27.00;;;18.33;;
20417;SDS011;10368;51.436;6.774;2022-12-08T04:43:03;28.03;;;17.90;;
20417;SDS011;10368;51.436;6.774;2022-12-08T04:45:30;24.03;;;17.33;;
20417;SDS011;10368;51.436;6.774;2022-12-08T04:47:57;29.23;;;17.63;;
20417;SDS011;10368;51.436;6.774;2022-12-08T04:50:25;25.47;;;16.70;;
20417;SDS011;10368;51.436;6.774;2022-12-08T04:52:52;21.40;;;14.00;;
20417;SDS011;10368;51.436;6.774;2022-12-08T04:55:19;25.63;;;17.00;;
20417;SDS011;10368;51.436;6.774;2022-12-08T04:57:46;22.17;;;17.00;;
20417;SDS011;10368;51.436;6.774;2022-12-08T05:00:13;24.67;;;16.47;;
20417;SDS011;10368;51.436;6.774;2022-12-08T05:02:40;21.83;;;15.90;;
20417;SDS011;10368;51.436;6.774;2022-12-08T05:05:08;25.97;;;16.57;;
20417;SDS011;10368;51.436;6.774;2022-12-08T05:07:35;25.50;;;17.13;;
20417;SDS011;10368;51.436;6.774;2022-12-08T05:10:03;22.77;;;16.13;;
20417;SDS011;10368;51.436;6.774;2022-12-08T05:12:31;24.70;;;15.77;;
20417;SDS011;10368;51.436;6.774;2022-12-08T05:14:58;23.30;;;16.50;;
20417;SDS011;10368;51.436;6.774;2022-12-08T05:17:25;22.30;;;16.20;;
20417;SDS011;10368;51.436;6.774;2022-12-08T05:19:52;25.57;;;17.20;;
20417;SDS011;10368;51.436;6.774;2022-12-08T05:22:18;23.10;;;17.20;;
20417;SDS011;10368;51.436;6.774;2022-12-08T05:24:48;20.80;;;16.03;;
20417;SDS011;10368;51.436;6.774;2022-12-08T05:27:18;24.07;;;17.37;;
20417;SDS011;10368;51.436;6.774;2022-12-08T05:29:45;23.17;;;16.07;;
20417;SDS011;10368;51.436;6.774;2022-12-08T05:32:13;23.27;;;15.50;;
20417;SDS011;10368;51.436;6.774;2022-12-08T05:34:40;22.70;;;15.53;;
20417;SDS011;10368;51.436;6.774;2022-12-08T05:37:07;29.80;;;16.97;;
20417;SDS011;10368;51.436;6.774;2022-12-08T05:39:33;22.33;;;15.60;;
20417;SDS011;10368;51.436;6.774;2022-12-08T05:42:00;22.90;;;15.73;;
20417;SDS011;10368;51.436;6.774;2022-12-08T05:44:27;21.97;;;15.97;;
20417;SDS011;10368;51.436;6.774;2022-12-08T05:46:54;31.43;;;18.20;;
20417;SDS011;10368;51.436;6.774;2022-12-08T05:49:21;22.80;;;15.50;;
20417;SDS011;10368;51.436;6.774;2022-12-08T05:51:48;21.90;;;16.13;;
20417;SDS011;10368;51.436;6.774;2022-12-08T05:54:14;23.33;;;15.50;;
20417;SDS011;10368;51.436;6.774;2022-12-08T05:56:41;21.37;;;15.50;;
20417;SDS011;10368;51.436;6.774;2022-12-08T05:59:08;24.43;;;17.80;;
20417;SDS011;10368;51.436;6.774;2022-12-08T06:01:35;28.73;;;16.63;;
20417;SDS011;10368;51.436;6.774;2022-12-08T06:04:03;24.43;;;15.40;;
20417;SDS011;10368;51.436;6.774;2022-12-08T06:06:30;23.10;;;16.37;;
20417;SDS011;10368;51.436;6.774;2022-12-08T06:09:01;25.33;;;17.40;;
20417;SDS011;10368;51.436;6.774;2022-12-08T06:11:29;29.73;;;18.17;;
20417;SDS011;10368;51.436;6.774;2022-12-08T06:13:56;27.90;;;17.97;;
20417;SDS011;10368;51.436;6.774;2022-12-08T06:16:25;29.87;;;17.83;;
20417;SDS011;10368;51.436;6.774;2022-12-08T06:18:53;29.47;;;17.37;;
20417;SDS011;10368;51.436;6.774;2022-12-08T06:21:20;28.63;;;18.07;;
20417;SDS011;10368;51.436;6.774;2022-12-08T06:23:50;28.87;;;17.67;;
20417;SDS011;10368;51.436;6.774;2022-12-08T06:26:22;27.70;;;17.53;;
20417;SDS011;10368;51.436;6.774;2022-12-08T06:28:49;25.40;;;17.50;;
20417;SDS011;10368;51.436;6.774;2022-12-08T06:31:18;32.60;;;18.07;;
20417;SDS011;10368;51.436;6.774;2022-12-08T06:33:48;29.40;;;17.40;;
20417;SDS011;10368;51.436;6.774;2022-12-08T06:36:16;29.87;;;18.07;;
20417;SDS011;10368;51.436;6.774;2022-12-08T06:38:45;30.57;;;19.17;;
20417;SDS011;10368;51.436;6.774;2022-12-08T06:41:12;30.77;;;18.20;;
20417;SDS011;10368;51.436;6.774;2022-12-08T06:43:40;25.33;;;16.87;;
20417;SDS011;10368;51.436;6.774;2022-12-08T06:46:08;26.87;;;17.67;;
20417;SDS011;10368;51.436;6.774;2022-12-08T06:48:38;25.60;;;16.97;;
20417;SDS011;10368;51.436;6.774;2022-12-08T06:51:10;27.13;;;16.93;;
20417;SDS011;10368;51.436;6.774;2022-12-08T06:53:39;33.40;;;18.57;;
20417;SDS011;10368;51.436;6.774;2022-12-08T06:56:06;31.77;;;18.43;;
20417;SDS011;10368;51.436;6.774;2022-12-08T06:58:34;27.53;;;17.20;;
20417;SDS011;10368;51.436;6.774;2022-12-08T07:01:05;29.13;;;16.70;;
20417;SDS011;10368;51.436;6.774;2022-12-08T07:03:34;26.23;;;17.17;;
20417;SDS011;10368;51.436;6.774;2022-12-08T07:06:02;27.77;;;15.87;;
20417;SDS011;10368;51.436;6.774;2022-12-08T07:08:30;29.23;;;17.20;;
20417;SDS011;10368;51.436;6.774;2022-12-08T07:10:58;28.67;;;17.10;;
20417;SDS011;10368;51.436;6.774;2022-12-08T07:13:25;32.70;;;17.73;;
20417;SDS011;10368;51.436;6.774;2022-12-08T07:15:51;30.53;;;16.93;;
20417;SDS011;10368;51.436;6.774;2022-12-08T07:18:18;25.93;;;16.63;;
20417;SDS011;10368;51.436;6.774;2022-12-08T07:20:48;26.70;;;16.93;;
20417;SDS011;10368;51.436;6.774;2022-12-08T07:23:17;23.90;;;16.07;;
20417;SDS011;10368;51.436;6.774;2022-12-08T07:25:44;21.70;;;15.13;;
20417;SDS011;10368;51.436;6.774;2022-12-08T07:28:11;30.13;;;16.40;;
20417;SDS011;10368;51.436;6.774;2022-12-08T07:30:38;24.63;;;15.20;;
20417;SDS011;10368;51.436;6.774;2022-12-08T07:33:05;22.50;;;14.97;;
20417;SDS011;10368;51.436;6.774;2022-12-08T07:35:32;27.07;;;16.43;;
20417;SDS011;10368;51.436;6.774;2022-12-08T07:38:00;21.30;;;15.87;;
20417;SDS011;10368;51.436;6.774;2022-12-08T07:40:27;19.10;;;12.53;;
20417;SDS011;10368;51.436;6.774;2022-12-08T07:42:54;20.50;;;13.57;;
20417;SDS011;10368;51.436;6.774;2022-12-08T07:45:21;20.67;;;13.80;;
20417;SDS011;10368;51.436;6.774;2022-12-08T07:47:56;20.90;;;13.70;;
20417;SDS011;10368;51.436;6.774;2022-12-08T07:50:23;19.77;;;13.43;;
20417;SDS011;10368;51.436;6.774;2022-12-08T07:52:50;19.47;;;12.77;;
20417;SDS011;10368;51.436;6.774;2022-12-08T07:55:16;16.17;;;12.63;;
20417;SDS011;10368;51.436;6.774;2022-12-08T07:57:43;16.33;;;11.97;;
20417;SDS011;10368;51.436;6.774;2022-12-08T08:00:10;15.63;;;12.30;;
20417;SDS011;10368;51.436;6.774;2022-12-08T08:02:37;17.23;;;11.60;;
20417;SDS011;10368;51.436;6.774;2022-12-08T08:05:05;17.37;;;11.70;;
20417;SDS011;10368;51.436;6.774;2022-12-08T08:07:32;19.03;;;12.17;;
20417;SDS011;10368;51.436;6.774;2022-12-08T08:09:59;17.93;;;12.57;;
20417;SDS011;10368;51.436;6.774;2022-12-08T08:12:26;20.17;;;12.80;;
20417;SDS011;10368;51.436;6.774;2022-12-08T08:14:58;17.73;;;12.23;;
20417;SDS011;10368;51.436;6.774;2022-12-08T08:17:26;15.70;;;11.13;;
20417;SDS011;10368;51.436;6.774;2022-12-08T08:19:54;17.97;;;13.03;;
20417;SDS011;10368;51.436;6.774;2022-12-08T08:22:21;16.33;;;12.07;;
20417;SDS011;10368;51.436;6.774;2022-12-08T08:24:47;15.33;;;10.97;;
20417;SDS011;10368;51.436;6.774;2022-12-08T08:27:14;15.70;;;11.67;;
20417;SDS011;10368;51.436;6.774;2022-12-08T08:29:41;21.37;;;11.47;;
20417;SDS011;10368;51.436;6.774;2022-12-08T08:32:08;14.13;;;10.97;;
20417;SDS011;10368;51.436;6.774;2022-12-08T08:34:35;11.40;;;8.27;;
20417;SDS011;10368;51.436;6.774;2022-12-08T08:37:02;15.47;;;11.63;;
20417;SDS011;10368;51.436;6.774;2022-12-08T08:39:29;16.10;;;12.17;;
20417;SDS011;10368;51.436;6.774;2022-12-08T08:41:57;15.77;;;11.97;;
20417;SDS011;10368;51.436;6.774;2022-12-08T08:44:23;17.80;;;11.67;;
20417;SDS011;10368;51.436;6.774;2022-12-08T08:46:50;18.53;;;12.50;;
20417;SDS011;10368;51.436;6.774;2022-12-08T08:49:17;18.63;;;12.20;;
20417;SDS011;10368;51.436;6.774;2022-12-08T08:51:48;23.80;;;12.93;;
20417;SDS011;10368;51.436;6.774;2022-12-08T08:54:16;16.83;;;13.23;;
20417;SDS011;10368;51.436;6.774;2022-12-08T08:56:42;18.47;;;13.27;;
20417;SDS011;10368;51.436;6.774;2022-12-08T08:59:09;19.80;;;14.10;;
20417;SDS011;10368;51.436;6.774;2022-12-08T09:01:36;20.23;;;14.13;;
20417;SDS011;10368;51.436;6.774;2022-12-08T09:04:03;18.17;;;12.03;;
20417;SDS011;10368;51.436;6.774;2022-12-08T09:06:30;25.93;;;16.50;;
20417;SDS011;10368;51.436;6.774;2022-12-08T09:08:57;25.70;;;15.27;;
20417;SDS011;10368;51.436;6.774;2022-12-08T09:11:24;24.87;;;15.90;;
20417;SDS011;10368;51.436;6.774;2022-12-08T09:13:51;25.03;;;17.03;;
20417;SDS011;10368;51.436;6.774;2022-12-08T09:16:19;29.53;;;18.83;;
20417;SDS011;10368;51.436;6.774;2022-12-08T09:18:47;29.80;;;17.93;;
20417;SDS011;10368;51.436;6.774;2022-12-08T09:21:15;36.00;;;20.27;;
20417;SDS011;10368;51.436;6.774;2022-12-08T09:23:52;27.97;;;18.60;;
20417;SDS011;10368;51.436;6.774;2022-12-08T09:26:21;35.70;;;20.17;;
20417;SDS011;10368;51.436;6.774;2022-12-08T09:28:48;33.00;;;17.90;;
20417;SDS011;10368;51.436;6.774;2022-12-08T09:31:19;31.80;;;18.97;;
20417;SDS011;10368;51.436;6.774;2022-12-08T09:33:47;37.77;;;19.90;;
20417;SDS011;10368;51.436;6.774;2022-12-08T09:36:16;36.93;;;20.47;;
20417;SDS011;10368;51.436;6.774;2022-12-08T09:38:43;34.77;;;20.53;;
20417;SDS011;10368;51.436;6.774;2022-12-08T09:42:13;32.43;;;19.67;;
20417;SDS011;10368;51.436;6.774;2022-12-08T09:50:03;29.70;;;18.60;;
20417;SDS011;10368;51.436;6.774;2022-12-08T09:52:34;30.50;;;18.97;;
20417;SDS011;10368;51.436;6.774;2022-12-08T09:55:40;38.67;;;21.60;;
20417;SDS011;10368;51.436;6.774;2022-12-08T10:00:50;28.03;;;18.73;;
20417;SDS011;10368;51.436;6.774;2022-12-08T10:03:25;30.57;;;17.70;;
20417;SDS011;10368;51.436;6.774;2022-12-08T10:09:07;25.97;;;18.00;;
20417;SDS011;10368;51.436;6.774;2022-12-08T10:14:46;23.10;;;16.40;;
20417;SDS011;10368;51.436;6.774;2022-12-08T10:17:43;25.37;;;17.47;;
20417;SDS011;10368;51.436;6.774;2022-12-08T10:20:23;27.00;;;18.43;;
20417;SDS011;10368;51.436;6.774;2022-12-08T10:22:54;26.07;;;17.73;;
20417;SDS011;10368;51.436;6.774;2022-12-08T10:25:56;22.43;;;16.83;;
20417;SDS011;10368;51.436;6.774;2022-12-08T10:28:21;31.20;;;20.90;;
20417;SDS011;10368;51.436;6.774;2022-12-08T10:30:48;34.50;;;19.23;;
20417;SDS011;10368;51.436;6.774;2022-12-08T10:33:15;31.30;;;21.57;;
20417;SDS011;10368;51.436;6.774;2022-12-08T10:35:55;30.13;;;20.27;;
20417;SDS011;10368;51.436;6.774;2022-12-08T10:38:33;32.17;;;20.53;;
20417;SDS011;10368;51.436;6.774;2022-12-08T10:41:06;34.90;;;20.70;;
20417;SDS011;10368;51.436;6.774;2022-12-08T10:43:37;35.03;;;20.40;;
20417;SDS011;10368;51.436;6.774;2022-12-08T10:46:21;29.07;;;19.97;;
20417;SDS011;10368;51.436;6.774;2022-12-08T10:49:09;34.00;;;21.17;;
20417;SDS011;10368;51.436;6.774;2022-12-08T10:51:39;35.10;;;21.63;;
20417;SDS011;10368;51.436;6.774;2022-12-08T10:57:08;38.77;;;22.13;;
20417;SDS011;10368;51.436;6.774;2022-12-08T10:59:46;37.50;;;22.40;;
20417;SDS011;10368;51.436;6.774;2022-12-08T11:02:16;38.03;;;22.60;;
20417;SDS011;10368;51.436;6.774;2022-12-08T11:04:57;41.23;;;22.03;;
20417;SDS011;10368;51.436;6.774;2022-12-08T11:07:25;46.00;;;22.43;;
20417;SDS011;10368;51.436;6.774;2022-12-08T11:09:54;34.87;;;23.23;;
20417;SDS011;10368;51.436;6.774;2022-12-08T11:12:25;39.70;;;22.70;;
20417;SDS011;10368;51.436;6.774;2022-12-08T11:14:55;39.57;;;22.77;;
20417;SDS011;10368;51.436;6.774;2022-12-08T11:17:34;40.40;;;24.07;;
20417;SDS011;10368;51.436;6.774;2022-12-08T11:22:41;36.60;;;23.33;;
20417;SDS011;10368;51.436;6.774;2022-12-08T11:25:16;42.20;;;24.10;;
20417;SDS011;10368;51.436;6.774;2022-12-08T11:27:52;39.63;;;23.80;;
20417;SDS011;10368;51.436;6.774;2022-12-08T11:30:26;38.53;;;23.57;;
20417;SDS011;10368;51.436;6.774;2022-12-08T11:33:00;36.63;;;23.67;;
20417;SDS011;10368;51.436;6.774;2022-12-08T11:35:39;34.13;;;21.53;;
20417;SDS011;10368;51.436;6.774;2022-12-08T11:38:12;34.57;;;22.30;;
20417;SDS011;10368;51.436;6.774;2022-12-08T11:40:50;36.03;;;21.90;;
20417;SDS011;10368;51.436;6.774;2022-12-08T11:46:20;34.87;;;21.23;;
20417;SDS011;10368;51.436;6.774;2022-12-08T11:48:56;37.90;;;23.30;;
20417;SDS011;10368;51.436;6.774;2022-12-08T11:56:37;36.33;;;20.67;;
20417;SDS011;10368;51.436;6.774;2022-12-08T11:59:32;34.77;;;21.70;;
20417;SDS011;10368;51.436;6.774;2022-12-08T12:01:57;33.97;;;21.77;;
20417;SDS011;10368;51.436;6.774;2022-12-08T12:04:28;35.57;;;21.30;;
20417;SDS011;10368;51.436;6.774;2022-12-08T12:18:12;18.10;;;13.63;;
20417;SDS011;10368;51.436;6.774;2022-12-08T12:20:54;20.83;;;15.17;;
20417;SDS011;10368;51.436;6.774;2022-12-08T12:26:31;20.17;;;14.47;;
20417;SDS011;10368;51.436;6.774;2022-12-08T12:29:18;20.07;;;15.23;;
20417;SDS011;10368;51.436;6.774;2022-12-08T12:32:00;19.57;;;14.13;;
20417;SDS011;10368;51.436;6.774;2022-12-08T12:34:36;23.43;;;15.77;;
20417;SDS011;10368;51.436;6.774;2022-12-08T12:37:17;19.97;;;13.83;;
20417;SDS011;10368;51.436;6.774;2022-12-08T12:53:05;17.83;;;14.40;;
20417;SDS011;10368;51.436;6.774;2022-12-08T12:55:55;19.10;;;15.03;;
20417;SDS011;10368;51.436;6.774;2022-12-08T13:06:07;26.40;;;16.20;;
20417;SDS011;10368;51.436;6.774;2022-12-08T13:08:48;24.23;;;16.90;;
20417;SDS011;10368;51.436;6.774;2022-12-08T13:11:17;29.33;;;18.67;;
20417;SDS011;10368;51.436;6.774;2022-12-08T13:17:01;25.43;;;17.53;;
20417;SDS011;10368;51.436;6.774;2022-12-08T13:19:33;26.33;;;16.97;;
20417;SDS011;10368;51.436;6.774;2022-12-08T13:22:03;22.03;;;17.43;;
20417;SDS011;10368;51.436;6.774;2022-12-08T13:24:50;24.43;;;17.40;;
20417;SDS011;10368;51.436;6.774;2022-12-08T13:27:31;29.33;;;19.60;;
20417;SDS011;10368;51.436;6.774;2022-12-08T13:31:00;33.40;;;21.00;;
20417;SDS011;10368;51.436;6.774;2022-12-08T13:33:10;28.33;;;18.13;;
20417;SDS011;10368;51.436;6.774;2022-12-08T13:35:48;26.03;;;17.70;;
20417;SDS011;10368;51.436;6.774;2022-12-08T13:38:33;24.60;;;17.23;;
20417;SDS011;10368;51.436;6.774;2022-12-08T13:41:06;26.43;;;17.40;;
20417;SDS011;10368;51.436;6.774;2022-12-08T13:43:41;26.70;;;18.10;;
20417;SDS011;10368;51.436;6.774;2022-12-08T13:46:53;23.07;;;15.90;;
20417;SDS011;10368;51.436;6.774;2022-12-08T13:49:43;25.73;;;16.80;;
20417;SDS011;10368;51.436;6.774;2022-12-08T13:52:49;24.30;;;17.33;;
20417;SDS011;10368;51.436;6.774;2022-12-08T13:55:49;26.63;;;18.33;;
20417;SDS011;10368;51.436;6.774;2022-12-08T13:58:40;26.83;;;17.27;;
20417;SDS011;10368;51.436;6.774;2022-12-08T14:03:49;29.03;;;17.80;;
20417;SDS011;10368;51.436;6.774;2022-12-08T14:06:38;25.63;;;16.07;;
20417;SDS011;10368;51.436;6.774;2022-12-08T14:09:14;28.70;;;16.20;;
20417;SDS011;10368;51.436;6.774;2022-12-08T14:11:51;24.83;;;16.87;;
20417;SDS011;10368;51.436;6.774;2022-12-08T14:14:27;25.27;;;13.97;;
20417;SDS011;10368;51.436;6.774;2022-12-08T14:17:18;18.63;;;13.00;;
20417;SDS011;10368;51.436;6.774;2022-12-08T14:22:34;20.53;;;14.47;;
20417;SDS011;10368;51.436;6.774;2022-12-08T14:25:03;21.73;;;13.83;;
20417;SDS011;10368;51.436;6.774;2022-12-08T14:27:33;22.00;;;13.73;;
20417;SDS011;10368;51.436;6.774;2022-12-08T14:32:53;22.40;;;14.47;;
20417;SDS011;10368;51.436;6.774;2022-12-08T14:37:54;19.93;;;13.60;;
20417;SDS011;10368;51.436;6.774;2022-12-08T14:45:33;24.57;;;14.53;;
20417;SDS011;10368;51.436;6.774;2022-12-08T14:54:14;24.60;;;15.40;;
20417;SDS011;10368;51.436;6.774;2022-12-08T14:56:27;26.47;;;15.27;;
20417;SDS011;10368;51.436;6.774;2022-12-08T14:59:06;23.47;;;15.47;;
20417;SDS011;10368;51.436;6.774;2022-12-08T15:01:37;27.13;;;15.93;;
20417;SDS011;10368;51.436;6.774;2022-12-08T15:04:08;27.67;;;17.00;;
20417;SDS011;10368;51.436;6.774;2022-12-08T15:09:36;26.90;;;17.10;;
20417;SDS011;10368;51.436;6.774;2022-12-08T15:12:17;27.77;;;15.97;;
20417;SDS011;10368;51.436;6.774;2022-12-08T15:14:54;27.17;;;17.10;;
20417;SDS011;10368;51.436;6.774;2022-12-08T15:17:33;30.00;;;17.97;;
20417;SDS011;10368;51.436;6.774;2022-12-08T15:20:26;28.03;;;17.70;;
20417;SDS011;10368;51.436;6.774;2022-12-08T15:23:00;29.83;;;17.67;;
20417;SDS011;10368;51.436;6.774;2022-12-08T15:25:27;24.87;;;17.33;;
20417;SDS011;10368;51.436;6.774;2022-12-08T15:27:55;28.90;;;18.07;;
20417;SDS011;10368;51.436;6.774;2022-12-08T15:30:23;25.27;;;17.20;;
20417;SDS011;10368;51.436;6.774;2022-12-08T15:32:53;28.23;;;18.30;;
20417;SDS011;10368;51.436;6.774;2022-12-08T15:35:21;34.83;;;19.23;;
20417;SDS011;10368;51.436;6.774;2022-12-08T15:37:48;34.93;;;19.40;;
20417;SDS011;10368;51.436;6.774;2022-12-08T15:40:19;30.93;;;18.63;;
20417;SDS011;10368;51.436;6.774;2022-12-08T15:42:48;31.77;;;19.00;;
20417;SDS011;10368;51.436;6.774;2022-12-08T15:45:15;28.47;;;18.67;;
20417;SDS011;10368;51.436;6.774;2022-12-08T15:47:43;29.57;;;19.30;;
20417;SDS011;10368;51.436;6.774;2022-12-08T15:50:18;29.77;;;18.23;;
20417;SDS011;10368;51.436;6.774;2022-12-08T15:52:46;30.27;;;17.50;;
20417;SDS011;10368;51.436;6.774;2022-12-08T15:55:15;31.23;;;19.50;;
20417;SDS011;10368;51.436;6.774;2022-12-08T15:57:45;31.40;;;18.63;;
20417;SDS011;10368;51.436;6.774;2022-12-08T16:00:35;28.43;;;18.67;;
20417;SDS011;10368;51.436;6.774;2022-12-08T16:03:27;31.73;;;18.90;;
20417;SDS011;10368;51.436;6.774;2022-12-08T16:06:16;36.00;;;18.57;;
20417;SDS011;10368;51.436;6.774;2022-12-08T16:09:05;32.63;;;19.23;;
20417;SDS011;10368;51.436;6.774;2022-12-08T16:11:39;32.60;;;20.13;;
20417;SDS011;10368;51.436;6.774;2022-12-08T16:14:35;37.60;;;22.50;;
20417;SDS011;10368;51.436;6.774;2022-12-08T16:17:23;38.73;;;20.13;;
20417;SDS011;10368;51.436;6.774;2022-12-08T16:19:51;36.90;;;19.90;;
20417;SDS011;10368;51.436;6.774;2022-12-08T16:22:20;36.67;;;20.63;;
20417;SDS011;10368;51.436;6.774;2022-12-08T16:25:11;31.67;;;18.43;;
20417;SDS011;10368;51.436;6.774;2022-12-08T16:27:47;30.07;;;18.07;;
20417;SDS011;10368;51.436;6.774;2022-12-08T16:30:35;27.10;;;16.97;;
20417;SDS011;10368;51.436;6.774;2022-12-08T16:33:02;28.03;;;17.90;;
20417;SDS011;10368;51.436;6.774;2022-12-08T16:36:00;25.53;;;16.90;;
20417;SDS011;10368;51.436;6.774;2022-12-08T16:38:26;28.03;;;17.53;;
20417;SDS011;10368;51.436;6.774;2022-12-08T16:44:19;27.40;;;18.03;;
20417;SDS011;10368;51.436;6.774;2022-12-08T16:46:52;30.57;;;18.67;;
20417;SDS011;10368;51.436;6.774;2022-12-08T16:49:42;25.47;;;17.10;;
20417;SDS011;10368;51.436;6.774;2022-12-08T16:52:17;27.40;;;18.27;;
20417;SDS011;10368;51.436;6.774;2022-12-08T16:54:44;33.27;;;18.80;;
20417;SDS011;10368;51.436;6.774;2022-12-08T16:57:11;29.70;;;19.00;;
20417;SDS011;10368;51.436;6.774;2022-12-08T16:59:38;38.57;;;22.37;;
20417;SDS011;10368;51.436;6.774;2022-12-08T17:02:05;28.67;;;18.43;;
20417;SDS011;10368;51.436;6.774;2022-12-08T17:04:35;27.10;;;19.53;;
20417;SDS011;10368;51.436;6.774;2022-12-08T17:07:02;28.63;;;18.47;;
20417;SDS011;10368;51.436;6.774;2022-12-08T17:09:29;30.13;;;19.27;;